Time;durP1;ratioP1;P1;durP2;ratioP2;P2;SDS_P1;SDS_P2;PMS_P1;PMS_P2;Temp;Humidity;BMP_temperature;BMP_pressure;BME280_temperature;BME280_humidity;BME280_pressure;Samples;Min_cycle;Max_cycle;Signal;HPM_P1;HPM_P2
2023/08/01 00:02:11;;;;;;;25.77;10.10;;;;;;;;;;5069889;28;20043;-64
2023/08/01 00:04:37;;;;;;;21.20;9.40;;;;;;;;;;5070306;28;20032;-64
2023/08/01 00:07:03;;;;;;;21.47;9.40;;;;;;;;;;5070381;28;20052;-64
2023/08/01 00:09:29;;;;;;;21.37;8.60;;;;;;;;;;5070031;28;20040;-64
2023/08/01 00:11:55;;;;;;;21.40;9.47;;;;;;;;;;5069763;28;20040;-64
2023/08/01 00:14:24;;;;;;;16.17;8.90;;;;;;;;;;5069942;28;20101;-63
2023/08/01 00:16:50;;;;;;;24.73;9.07;;;;;;;;;;5070034;28;20135;-64
2023/08/01 00:19:16;;;;;;;17.13;7.73;;;;;;;;;;5068993;28;20048;-64
2023/08/01 00:21:42;;;;;;;20.30;8.50;;;;;;;;;;5069764;28;20044;-64
2023/08/01 00:24:08;;;;;;;23.53;8.57;;;;;;;;;;5069668;28;20048;-63
2023/08/01 00:26:34;;;;;;;22.63;8.23;;;;;;;;;;5069206;28;20051;-64
2023/08/01 00:29:01;;;;;;;17.07;7.77;;;;;;;;;;5069414;28;20067;-64
2023/08/01 00:31:27;;;;;;;22.10;7.10;;;;;;;;;;5069754;28;20068;-64
2023/08/01 00:33:53;;;;;;;21.17;7.00;;;;;;;;;;5069647;28;20506;-64
2023/08/01 00:36:19;;;;;;;19.93;7.20;;;;;;;;;;5069763;28;20048;-64
2023/08/01 00:38:45;;;;;;;26.87;7.90;;;;;;;;;;5068158;28;20045;-64
2023/08/01 00:41:11;;;;;;;22.67;8.53;;;;;;;;;;5068924;28;20525;-64
2023/08/01 00:43:37;;;;;;;23.07;8.20;;;;;;;;;;5069464;28;20425;-64
2023/08/01 00:46:04;;;;;;;19.97;7.10;;;;;;;;;;5068961;28;20403;-64
2023/08/01 00:48:30;;;;;;;19.57;7.80;;;;;;;;;;5069567;28;20055;-64
2023/08/01 00:50:57;;;;;;;14.83;6.13;;;;;;;;;;5068865;28;20037;-64
2023/08/01 00:53:24;;;;;;;19.73;7.40;;;;;;;;;;5068816;28;20045;-64
2023/08/01 00:55:53;;;;;;;23.13;8.50;;;;;;;;;;5069126;28;20414;-64
2023/08/01 00:58:19;;;;;;;25.40;8.57;;;;;;;;;;5069149;28;20354;-64
2023/08/01 01:00:46;;;;;;;16.17;7.57;;;;;;;;;;5069092;28;20044;-64
2023/08/01 01:03:12;;;;;;;24.63;8.47;;;;;;;;;;5068861;28;20041;-64
2023/08/01 01:05:39;;;;;;;18.83;7.37;;;;;;;;;;5069273;28;20094;-64
2023/08/01 01:08:05;;;;;;;18.07;8.20;;;;;;;;;;5069135;28;20131;-64
2023/08/01 01:10:32;;;;;;;18.30;8.40;;;;;;;;;;5069155;28;20450;-64
2023/08/01 01:12:58;;;;;;;19.10;8.60;;;;;;;;;;5068908;28;20055;-64
2023/08/01 01:15:24;;;;;;;21.97;9.17;;;;;;;;;;5069117;28;20052;-64
2023/08/01 01:17:50;;;;;;;23.47;9.63;;;;;;;;;;5068308;28;20421;-64
2023/08/01 01:20:20;;;;;;;24.70;11.20;;;;;;;;;;5068471;28;20093;-64
2023/08/01 01:22:47;;;;;;;20.43;10.70;;;;;;;;;;5068631;28;20046;-64
2023/08/01 01:25:13;;;;;;;21.67;10.77;;;;;;;;;;5068592;28;20421;-64
2023/08/01 01:27:39;;;;;;;25.57;11.40;;;;;;;;;;5068384;28;20049;-63
2023/08/01 01:30:06;;;;;;;20.60;10.87;;;;;;;;;;5068005;28;20067;-64
2023/08/01 01:32:32;;;;;;;27.53;11.70;;;;;;;;;;5068353;28;20071;-64
2023/08/01 01:34:58;;;;;;;26.63;11.40;;;;;;;;;;5068229;28;20110;-64
2023/08/01 01:37:24;;;;;;;22.47;10.50;;;;;;;;;;5068382;28;20048;-64
2023/08/01 01:39:50;;;;;;;27.00;11.07;;;;;;;;;;5068408;28;20092;-64
2023/08/01 01:42:16;;;;;;;29.30;12.20;;;;;;;;;;5068562;28;20151;-63
2023/08/01 01:44:42;;;;;;;30.43;12.30;;;;;;;;;;5068062;28;20094;-64
2023/08/01 01:47:08;;;;;;;27.53;10.60;;;;;;;;;;5068448;28;20532;-64
2023/08/01 01:49:34;;;;;;;23.13;9.93;;;;;;;;;;5068335;28;20040;-64
2023/08/01 01:52:00;;;;;;;30.00;11.30;;;;;;;;;;5067684;28;20043;-64
2023/08/01 01:54:26;;;;;;;27.63;12.37;;;;;;;;;;5068189;28;20482;-64
2023/08/01 01:56:52;;;;;;;31.13;11.73;;;;;;;;;;5068482;28;20055;-63
2023/08/01 01:59:18;;;;;;;26.20;11.93;;;;;;;;;;5068019;28;20413;-64
2023/08/01 02:01:44;;;;;;;25.03;11.93;;;;;;;;;;5068146;28;20041;-64
2023/08/01 02:04:10;;;;;;;30.37;11.40;;;;;;;;;;5067823;28;20078;-64
2023/08/01 02:06:36;;;;;;;30.23;9.97;;;;;;;;;;5068226;28;20047;-64
2023/08/01 02:09:02;;;;;;;23.87;10.10;;;;;;;;;;5068059;28;20040;-64
2023/08/01 02:11:28;;;;;;;21.73;9.47;;;;;;;;;;5068233;28;20048;-63
2023/08/01 02:13:54;;;;;;;27.00;10.30;;;;;;;;;;5068263;28;20413;-64
2023/08/01 02:16:20;;;;;;;20.57;10.50;;;;;;;;;;5067658;28;20151;-64
2023/08/01 02:18:46;;;;;;;20.30;9.80;;;;;;;;;;5068205;28;20444;-63
2023/08/01 02:21:12;;;;;;;23.90;10.27;;;;;;;;;;5068234;28;20052;-64
2023/08/01 02:23:38;;;;;;;32.80;11.83;;;;;;;;;;5067410;28;20045;-64
2023/08/01 02:26:04;;;;;;;30.23;11.47;;;;;;;;;;5068160;28;20193;-64
2023/08/01 02:28:30;;;;;;;26.70;11.27;;;;;;;;;;5068260;28;20052;-64
2023/08/01 02:30:56;;;;;;;22.63;9.70;;;;;;;;;;5067866;28;20044;-63
2023/08/01 02:33:22;;;;;;;29.50;10.83;;;;;;;;;;5067851;28;20048;-64
2023/08/01 02:35:48;;;;;;;21.97;9.83;;;;;;;;;;5067345;28;20087;-63
2023/08/01 02:38:14;;;;;;;29.43;10.93;;;;;;;;;;5067906;28;20118;-64
2023/08/01 02:40:40;;;;;;;25.53;9.70;;;;;;;;;;5068048;28;20426;-64
2023/08/01 02:43:06;;;;;;;24.60;8.80;;;;;;;;;;5070088;28;20048;-64
2023/08/01 02:45:32;;;;;;;21.17;9.03;;;;;;;;;;5071615;28;20048;-64
2023/08/01 02:47:58;;;;;;;18.77;8.23;;;;;;;;;;5071838;28;20532;-64
2023/08/01 02:50:24;;;;;;;20.07;8.70;;;;;;;;;;5071062;28;20203;-64
2023/08/01 02:52:50;;;;;;;21.83;8.30;;;;;;;;;;5071252;28;20044;-64
2023/08/01 02:55:16;;;;;;;21.93;9.60;;;;;;;;;;5070283;28;20033;-64
2023/08/01 02:57:42;;;;;;;30.87;8.10;;;;;;;;;;5070952;28;20044;-64
2023/08/01 03:00:11;;;;;;;26.60;8.07;;;;;;;;;;5071235;28;20055;-64
2023/08/01 03:02:37;;;;;;;16.83;8.00;;;;;;;;;;5071378;28;20060;-63
2023/08/01 03:05:04;;;;;;;23.37;8.20;;;;;;;;;;5071655;28;20146;-64
2023/08/01 03:07:31;;;;;;;23.47;8.33;;;;;;;;;;5070961;28;20048;-64
2023/08/01 03:09:57;;;;;;;15.33;7.77;;;;;;;;;;5071296;28;20377;-64
2023/08/01 03:12:23;;;;;;;18.40;8.60;;;;;;;;;;5071237;28;20052;-64
2023/08/01 03:14:49;;;;;;;20.83;7.27;;;;;;;;;;5070835;28;20055;-64
2023/08/01 03:17:16;;;;;;;23.37;8.57;;;;;;;;;;5071170;28;20055;-64
2023/08/01 03:19:42;;;;;;;23.30;9.43;;;;;;;;;;5070796;28;20052;-64
2023/08/01 03:22:08;;;;;;;20.93;7.90;;;;;;;;;;5071143;28;20052;-64
2023/08/01 03:24:34;;;;;;;20.03;8.80;;;;;;;;;;5070503;28;20052;-63
2023/08/01 03:27:00;;;;;;;19.03;7.90;;;;;;;;;;5070599;28;20044;-64
2023/08/01 03:29:26;;;;;;;26.00;9.30;;;;;;;;;;5070668;28;20041;-64
2023/08/01 03:31:53;;;;;;;29.17;8.33;;;;;;;;;;5070926;28;20047;-64
2023/08/01 03:34:19;;;;;;;36.83;10.00;;;;;;;;;;5070299;28;20860;-65
2023/08/01 03:36:45;;;;;;;27.70;8.60;;;;;;;;;;5070454;28;20044;-66
2023/08/01 03:39:11;;;;;;;21.77;9.63;;;;;;;;;;5070831;28;20087;-65
2023/08/01 03:41:37;;;;;;;16.33;7.97;;;;;;;;;;5070507;28;20580;-65
2023/08/01 03:44:03;;;;;;;15.23;4.77;;;;;;;;;;5070371;28;20062;-65
2023/08/01 03:46:29;;;;;;;24.63;7.07;;;;;;;;;;5070520;28;20043;-64
2023/08/01 03:48:55;;;;;;;13.63;4.30;;;;;;;;;;5070350;28;20063;-64
2023/08/01 03:51:21;;;;;;;10.77;4.80;;;;;;;;;;5070286;28;20569;-64
2023/08/01 03:53:47;;;;;;;12.20;3.70;;;;;;;;;;5067826;28;20048;-64
2023/08/01 03:56:13;;;;;;;6.40;2.90;;;;;;;;;;5070455;28;20093;-64
2023/08/01 03:58:39;;;;;;;10.00;3.10;;;;;;;;;;5070714;28;20052;-64
2023/08/01 04:01:06;;;;;;;11.17;3.37;;;;;;;;;;5070401;28;20052;-64
2023/08/01 04:03:32;;;;;;;7.77;3.27;;;;;;;;;;5069818;28;20051;-64
2023/08/01 04:05:58;;;;;;;8.67;3.50;;;;;;;;;;5069104;28;20052;-64
2023/08/01 04:08:24;;;;;;;10.00;3.53;;;;;;;;;;5070100;28;20487;-64
2023/08/01 04:10:50;;;;;;;9.43;3.37;;;;;;;;;;5070258;28;20394;-64
2023/08/01 04:13:16;;;;;;;10.07;3.63;;;;;;;;;;5070754;28;20037;-64
2023/08/01 04:15:42;;;;;;;8.33;3.40;;;;;;;;;;5070037;28;20090;-64
2023/08/01 04:18:08;;;;;;;6.70;3.03;;;;;;;;;;5069215;28;20084;-64
2023/08/01 04:20:34;;;;;;;8.43;3.17;;;;;;;;;;5069745;28;20044;-64
2023/08/01 04:23:00;;;;;;;6.40;2.70;;;;;;;;;;5069666;28;20494;-64
2023/08/01 04:25:26;;;;;;;9.83;3.33;;;;;;;;;;5069364;28;20049;-65
2023/08/01 04:27:53;;;;;;;6.73;2.87;;;;;;;;;;5068944;28;20528;-64
2023/08/01 04:30:19;;;;;;;9.23;3.07;;;;;;;;;;5069535;28;20097;-64
2023/08/01 04:32:45;;;;;;;6.00;2.60;;;;;;;;;;5069515;28;20052;-64
2023/08/01 04:35:11;;;;;;;9.53;4.00;;;;;;;;;;5069038;28;20052;-64
2023/08/01 04:37:37;;;;;;;8.07;3.43;;;;;;;;;;5069315;28;20494;-64
2023/08/01 04:40:03;;;;;;;7.90;3.13;;;;;;;;;;5069128;28;20056;-64
2023/08/01 04:42:30;;;;;;;9.47;3.43;;;;;;;;;;5068788;28;20483;-64
2023/08/01 04:44:56;;;;;;;7.87;3.10;;;;;;;;;;5069127;28;20048;-64
2023/08/01 04:47:22;;;;;;;9.33;3.40;;;;;;;;;;5069291;28;20093;-64
2023/08/01 04:49:48;;;;;;;6.03;2.60;;;;;;;;;;5069034;28;20040;-64
2023/08/01 04:52:14;;;;;;;11.87;4.00;;;;;;;;;;5068778;28;20083;-64
2023/08/01 04:54:40;;;;;;;7.97;3.20;;;;;;;;;;5068990;28;20411;-64
2023/08/01 04:57:06;;;;;;;6.43;3.03;;;;;;;;;;5068480;28;20056;-64
2023/08/01 04:59:32;;;;;;;6.80;3.40;;;;;;;;;;5068793;28;20095;-64
2023/08/01 05:01:58;;;;;;;7.10;3.00;;;;;;;;;;5068877;28;20037;-64
2023/08/01 05:04:24;;;;;;;5.77;2.73;;;;;;;;;;5069043;28;20143;-64
2023/08/01 05:06:50;;;;;;;8.83;3.23;;;;;;;;;;5068857;28;20049;-64
2023/08/01 05:09:16;;;;;;;7.73;3.27;;;;;;;;;;5068326;28;20526;-64
2023/08/01 05:11:42;;;;;;;9.40;3.10;;;;;;;;;;5069014;28;20048;-64
2023/08/01 05:14:08;;;;;;;5.20;3.27;;;;;;;;;;5068616;28;20502;-64
2023/08/01 05:16:34;;;;;;;7.00;2.90;;;;;;;;;;5068820;28;20091;-64
2023/08/01 05:19:00;;;;;;;10.83;3.20;;;;;;;;;;5068550;28;20287;-64
2023/08/01 05:21:26;;;;;;;17.53;4.13;;;;;;;;;;5067637;28;20509;-65
2023/08/01 05:23:52;;;;;;;9.60;3.87;;;;;;;;;;5068306;28;20044;-64
2023/08/01 05:26:18;;;;;;;13.90;4.17;;;;;;;;;;5068446;28;20040;-65
2023/08/01 05:28:44;;;;;;;10.33;4.47;;;;;;;;;;5066973;28;20486;-65
2023/08/01 05:31:10;;;;;;;24.27;6.30;;;;;;;;;;5067939;28;20068;-65
2023/08/01 05:33:36;;;;;;;22.90;5.57;;;;;;;;;;5068559;28;20071;-65
2023/08/01 05:36:02;;;;;;;26.30;5.50;;;;;;;;;;5068386;28;20120;-66
2023/08/01 05:38:28;;;;;;;19.13;6.00;;;;;;;;;;5068100;28;20048;-65
2023/08/01 05:40:54;;;;;;;16.83;5.03;;;;;;;;;;5067885;28;20071;-65
2023/08/01 05:43:20;;;;;;;8.93;4.67;;;;;;;;;;5068036;28;20059;-65
2023/08/01 05:45:46;;;;;;;14.87;5.80;;;;;;;;;;5067959;28;20052;-65
2023/08/01 05:48:13;;;;;;;11.50;5.50;;;;;;;;;;5068065;28;20040;-65
2023/08/01 05:50:39;;;;;;;13.50;5.80;;;;;;;;;;5068242;28;20053;-65
2023/08/01 05:53:06;;;;;;;10.57;4.37;;;;;;;;;;5067461;28;20574;-64
2023/08/01 05:55:32;;;;;;;10.00;4.20;;;;;;;;;;5068229;28;20053;-65
2023/08/01 05:57:58;;;;;;;12.27;4.87;;;;;;;;;;5067988;28;20052;-66
2023/08/01 06:00:24;;;;;;;25.90;6.23;;;;;;;;;;5068046;28;20052;-65
2023/08/01 06:02:50;;;;;;;10.70;4.90;;;;;;;;;;5068206;28;20040;-65
2023/08/01 06:05:16;;;;;;;12.60;4.23;;;;;;;;;;5068020;28;20513;-65
2023/08/01 06:07:42;;;;;;;13.73;5.27;;;;;;;;;;5067473;28;20047;-65
2023/08/01 06:10:08;;;;;;;11.93;4.70;;;;;;;;;;5068187;28;20052;-64
2023/08/01 06:12:34;;;;;;;13.33;4.57;;;;;;;;;;5066546;28;20549;-64
2023/08/01 06:15:00;;;;;;;10.87;4.50;;;;;;;;;;5067661;28;20037;-64
2023/08/01 06:17:26;;;;;;;7.27;3.63;;;;;;;;;;5069186;28;20076;-64
2023/08/01 06:19:54;;;;;;;10.33;3.67;;;;;;;;;;5071777;28;20464;-63
2023/08/01 06:22:20;;;;;;;8.77;4.03;;;;;;;;;;5071804;28;20048;-64
2023/08/01 06:24:46;;;;;;;12.50;4.33;;;;;;;;;;5071607;28;20049;-63
2023/08/01 06:27:14;;;;;;;10.27;4.43;;;;;;;;;;5071721;28;20442;-64
2023/08/01 06:29:40;;;;;;;7.83;3.50;;;;;;;;;;5071766;28;20577;-64
2023/08/01 06:32:06;;;;;;;8.93;3.77;;;;;;;;;;5071554;28;20127;-64
2023/08/01 06:34:32;;;;;;;8.27;3.27;;;;;;;;;;5071207;28;20139;-63
2023/08/01 06:36:58;;;;;;;11.00;3.27;;;;;;;;;;5071505;28;20207;-64
2023/08/01 06:39:25;;;;;;;7.37;3.57;;;;;;;;;;5071315;28;20139;-63
2023/08/01 06:41:51;;;;;;;9.03;3.20;;;;;;;;;;5071432;28;20054;-63
2023/08/01 06:44:17;;;;;;;7.27;3.20;;;;;;;;;;5070979;28;20490;-64
2023/08/01 06:46:43;;;;;;;7.07;3.47;;;;;;;;;;5071461;28;20045;-63
2023/08/01 06:49:09;;;;;;;7.47;3.30;;;;;;;;;;5071580;28;20041;-64
2023/08/01 06:51:35;;;;;;;8.73;2.90;;;;;;;;;;5071371;28;20538;-64
2023/08/01 06:54:00;;;;;;;12.43;4.00;;;;;;;;;;5071335;28;20067;-64
2023/08/01 06:56:26;;;;;;;11.27;3.53;;;;;;;;;;5070744;28;20044;-64
2023/08/01 06:58:53;;;;;;;10.80;3.20;;;;;;;;;;5071029;28;20447;-64
2023/08/01 07:01:19;;;;;;;7.53;3.27;;;;;;;;;;5071176;28;20088;-64
2023/08/01 07:03:45;;;;;;;14.20;4.10;;;;;;;;;;5071444;28;20512;-64
2023/08/01 07:06:11;;;;;;;10.20;3.20;;;;;;;;;;5071103;28;20425;-64
2023/08/01 07:08:37;;;;;;;11.00;3.10;;;;;;;;;;5070820;28;20483;-64
2023/08/01 07:11:03;;;;;;;7.80;3.60;;;;;;;;;;5071169;28;20047;-64
2023/08/01 07:13:29;;;;;;;7.90;2.40;;;;;;;;;;5071005;28;20048;-65
2023/08/01 07:15:55;;;;;;;9.73;3.43;;;;;;;;;;5071041;28;20417;-64
2023/08/01 07:18:21;;;;;;;11.00;3.67;;;;;;;;;;5070727;28;20045;-64
2023/08/01 07:20:47;;;;;;;12.80;4.37;;;;;;;;;;5070906;28;20051;-64
2023/08/01 07:23:13;;;;;;;13.43;3.87;;;;;;;;;;5070353;28;20044;-64
2023/08/01 07:25:39;;;;;;;8.03;3.67;;;;;;;;;;5070614;28;20320;-63
2023/08/01 07:28:05;;;;;;;5.07;2.90;;;;;;;;;;5070840;28;20044;-64
2023/08/01 07:30:31;;;;;;;10.17;3.73;;;;;;;;;;5070718;28;20051;-64
2023/08/01 07:32:57;;;;;;;12.80;3.70;;;;;;;;;;5070684;28;20044;-64
2023/08/01 07:35:23;;;;;;;10.17;3.87;;;;;;;;;;5069989;28;20058;-64
2023/08/01 07:37:49;;;;;;;9.40;3.97;;;;;;;;;;5070509;28;20405;-63
2023/08/01 07:40:15;;;;;;;11.77;3.80;;;;;;;;;;5070360;28;20052;-64
2023/08/01 07:42:41;;;;;;;12.00;3.70;;;;;;;;;;5070626;28;20044;-64
2023/08/01 07:45:07;;;;;;;9.37;4.00;;;;;;;;;;5070346;28;20040;-64
2023/08/01 07:47:33;;;;;;;10.90;4.03;;;;;;;;;;5070879;28;20055;-64
2023/08/01 07:49:59;;;;;;;10.70;3.43;;;;;;;;;;5069785;28;20131;-64
2023/08/01 07:52:25;;;;;;;12.17;4.17;;;;;;;;;;5070187;28;20128;-64
2023/08/01 07:54:53;;;;;;;22.03;4.27;;;;;;;;;;5070086;28;20052;-64
2023/08/01 07:57:19;;;;;;;28.77;5.73;;;;;;;;;;5070170;28;20426;-65
2023/08/01 07:59:45;;;;;;;30.03;5.93;;;;;;;;;;5070206;28;20425;-66
2023/08/01 08:02:11;;;;;;;16.70;4.50;;;;;;;;;;5069316;28;20581;-65
2023/08/01 08:04:39;;;;;;;13.23;5.13;;;;;;;;;;5070295;28;20040;-65
2023/08/01 08:07:05;;;;;;;20.47;6.37;;;;;;;;;;5069921;28;20044;-64
2023/08/01 08:09:31;;;;;;;13.57;4.80;;;;;;;;;;5069757;28;20494;-65
2023/08/01 08:11:57;;;;;;;13.20;4.77;;;;;;;;;;5069604;28;20127;-64
2023/08/01 08:14:23;;;;;;;21.40;5.97;;;;;;;;;;5069949;28;20102;-65
2023/08/01 08:16:49;;;;;;;17.47;5.17;;;;;;;;;;5069851;28;20112;-65
2023/08/01 08:19:16;;;;;;;20.07;5.13;;;;;;;;;;5069191;28;20094;-65
2023/08/01 08:21:42;;;;;;;17.63;5.57;;;;;;;;;;5069400;28;20049;-64
2023/08/01 08:24:08;;;;;;;18.93;5.93;;;;;;;;;;5069658;28;20354;-65
2023/08/01 08:26:37;;;;;;;19.57;6.47;;;;;;;;;;5069387;28;20051;-65
2023/08/01 08:29:04;;;;;;;19.20;7.10;;;;;;;;;;5069611;28;20044;-64
2023/08/01 08:31:30;;;;;;;16.90;7.40;;;;;;;;;;5069201;28;20087;-64
2023/08/01 08:33:56;;;;;;;19.10;7.10;;;;;;;;;;5069260;28;20072;-63
2023/08/01 08:36:22;;;;;;;17.47;7.40;;;;;;;;;;5069298;28;20541;-65
2023/08/01 08:38:50;;;;;;;15.47;6.10;;;;;;;;;;5069349;28;20044;-64
2023/08/01 08:41:20;;;;;;;16.50;5.13;;;;;;;;;;5068104;28;20091;-64
2023/08/01 08:43:48;;;;;;;36.07;7.63;;;;;;;;;;5069398;28;20131;-65
2023/08/01 08:46:16;;;;;;;19.10;6.30;;;;;;;;;;5068971;28;20616;-65
2023/08/01 08:48:43;;;;;;;25.60;8.03;;;;;;;;;;5068730;28;20048;-64
2023/08/01 08:51:10;;;;;;;31.50;6.97;;;;;;;;;;5069032;28;20079;-65
2023/08/01 08:53:36;;;;;;;21.40;5.70;;;;;;;;;;5069603;28;20052;-65
2023/08/01 08:56:02;;;;;;;15.63;4.97;;;;;;;;;;5068960;28;20041;-64
2023/08/01 08:58:31;;;;;;;14.23;4.63;;;;;;;;;;5068786;28;20055;-64
2023/08/01 09:00:58;;;;;;;16.03;4.30;;;;;;;;;;5068424;28;20040;-65
2023/08/01 09:03:25;;;;;;;66.00;8.43;;;;;;;;;;5068977;28;20482;-66
2023/08/01 09:05:54;;;;;;;37.20;6.10;;;;;;;;;;5068779;28;20131;-66
2023/08/01 09:08:21;;;;;;;27.57;6.70;;;;;;;;;;5068313;28;20098;-66
2023/08/01 09:10:48;;;;;;;33.83;6.83;;;;;;;;;;5068815;28;20141;-67
2023/08/01 09:13:14;;;;;;;25.77;6.47;;;;;;;;;;5068831;28;20045;-66
2023/08/01 09:15:42;;;;;;;22.60;7.93;;;;;;;;;;5068674;28;20098;-65
2023/08/01 09:18:08;;;;;;;12.83;3.40;;;;;;;;;;5067145;28;20054;-65
2023/08/01 09:20:45;;;;;;;21.53;8.30;;;;;;;;;;5068353;28;20179;-65
2023/08/01 09:23:11;;;;;;;22.57;6.87;;;;;;;;;;5068360;28;20048;-65
2023/08/01 09:25:37;;;;;;;12.47;4.93;;;;;;;;;;5068507;28;20070;-65
2023/08/01 09:28:03;;;;;;;36.17;8.10;;;;;;;;;;5068545;28;20056;-65
2023/08/01 09:30:31;;;;;;;12.20;6.20;;;;;;;;;;5068508;28;20048;-65
2023/08/01 09:32:57;;;;;;;19.00;6.70;;;;;;;;;;5068131;28;20053;-64
2023/08/01 09:35:24;;;;;;;17.00;7.63;;;;;;;;;;5067929;28;20652;-65
2023/08/01 09:37:50;;;;;;;15.80;5.67;;;;;;;;;;5068291;28;20041;-65
2023/08/01 09:40:16;;;;;;;22.57;7.17;;;;;;;;;;5068059;28;20052;-65
2023/08/01 09:42:43;;;;;;;20.97;9.10;;;;;;;;;;5068362;28;20055;-65
2023/08/01 09:45:14;;;;;;;23.60;7.67;;;;;;;;;;5067725;28;20048;-66
2023/08/01 09:47:40;;;;;;;20.53;7.73;;;;;;;;;;5068036;28;20056;-65
2023/08/01 09:50:06;;;;;;;22.30;9.30;;;;;;;;;;5068088;28;20048;-65
2023/08/01 09:52:34;;;;;;;26.87;11.77;;;;;;;;;;5067294;28;20391;-65
2023/08/01 09:55:00;;;;;;;26.60;8.80;;;;;;;;;;5066760;28;20094;-65
2023/08/01 09:57:29;;;;;;;35.10;10.97;;;;;;;;;;5068037;28;20177;-64
2023/08/01 09:59:56;;;;;;;24.17;8.60;;;;;;;;;;5067569;28;20052;-65
2023/08/01 10:02:24;;;;;;;31.13;10.97;;;;;;;;;;5068020;28;20102;-65
2023/08/01 10:04:51;;;;;;;24.60;7.50;;;;;;;;;;5068173;28;20052;-65
2023/08/01 10:07:20;;;;;;;19.30;7.30;;;;;;;;;;5068106;28;20494;-65
2023/08/01 10:09:47;;;;;;;17.00;5.60;;;;;;;;;;5068190;28;20140;-66
2023/08/01 10:12:13;;;;;;;23.13;6.93;;;;;;;;;;5067430;28;20548;-65
2023/08/01 10:14:39;;;;;;;17.50;7.17;;;;;;;;;;5068350;28;20045;-64
2023/08/01 10:17:06;;;;;;;19.30;5.67;;;;;;;;;;5067970;28;20139;-65
2023/08/01 10:19:33;;;;;;;10.27;5.97;;;;;;;;;;5067644;28;20047;-64
2023/08/01 10:22:00;;;;;;;15.67;6.97;;;;;;;;;;5067585;28;20734;-64
2023/08/01 10:24:26;;;;;;;15.23;6.00;;;;;;;;;;5067726;28;20051;-64
2023/08/01 10:26:52;;;;;;;17.27;6.07;;;;;;;;;;5067574;28;20407;-64
2023/08/01 10:29:18;;;;;;;11.73;5.63;;;;;;;;;;5067684;28;20102;-64
2023/08/01 10:31:52;;;;;;;14.63;4.67;;;;;;;;;;5067937;28;20406;-64
2023/08/01 10:34:18;;;;;;;16.53;7.43;;;;;;;;;;5067330;28;20420;-64
2023/08/01 10:36:53;;;;;;;13.13;6.20;;;;;;;;;;5067621;28;20066;-64
2023/08/01 10:39:23;;;;;;;10.63;4.57;;;;;;;;;;5067580;28;20048;-64
2023/08/01 10:41:57;;;;;;;11.43;3.80;;;;;;;;;;5067352;28;20056;-64
2023/08/01 10:44:23;;;;;;;7.07;2.67;;;;;;;;;;5067583;28;20471;-64
2023/08/01 10:46:50;;;;;;;5.90;2.00;;;;;;;;;;5067099;28;20537;-64
2023/08/01 10:49:17;;;;;;;12.10;2.80;;;;;;;;;;5067301;28;20119;-64
2023/08/01 10:51:43;;;;;;;8.87;2.77;;;;;;;;;;5067557;28;20090;-64
2023/08/01 10:54:20;;;;;;;36.43;3.67;;;;;;;;;;5067359;28;20094;-64
2023/08/01 10:56:47;;;;;;;8.73;3.20;;;;;;;;;;5067497;28;20056;-65
2023/08/01 10:59:13;;;;;;;9.37;3.00;;;;;;;;;;5066692;28;20049;-64
2023/08/01 11:01:44;;;;;;;6.90;2.10;;;;;;;;;;5067408;28;20128;-64
2023/08/01 11:04:20;;;;;;;9.73;3.07;;;;;;;;;;5069547;28;20055;-64
2023/08/01 11:06:49;;;;;;;9.73;2.57;;;;;;;;;;5071312;28;20052;-64
2023/08/01 11:09:17;;;;;;;14.57;3.33;;;;;;;;;;5071355;28;20051;-64
2023/08/01 11:11:43;;;;;;;11.07;4.03;;;;;;;;;;5070933;28;20454;-65
2023/08/01 11:14:09;;;;;;;11.83;3.47;;;;;;;;;;5071042;28;20499;-64
2023/08/01 11:16:35;;;;;;;9.30;2.97;;;;;;;;;;5071133;28;20548;-64
2023/08/01 11:19:01;;;;;;;14.33;4.10;;;;;;;;;;5070827;28;20133;-64
2023/08/01 11:21:27;;;;;;;11.87;3.10;;;;;;;;;;5070909;28;20040;-64
2023/08/01 11:23:53;;;;;;;8.90;3.93;;;;;;;;;;5070860;28;20040;-64
2023/08/01 11:26:20;;;;;;;8.40;2.53;;;;;;;;;;5069882;28;20824;-64
2023/08/01 11:28:46;;;;;;;7.63;3.07;;;;;;;;;;5071042;28;20044;-64
2023/08/01 11:31:12;;;;;;;9.33;2.57;;;;;;;;;;5070644;28;20040;-64
2023/08/01 11:33:39;;;;;;;8.93;2.23;;;;;;;;;;5068690;28;20044;-64
2023/08/01 11:36:05;;;;;;;52.80;10.83;;;;;;;;;;5070425;28;20055;-64
2023/08/01 11:38:33;;;;;;;7.27;2.27;;;;;;;;;;5070627;28;20056;-64
2023/08/01 11:40:59;;;;;;;8.93;1.93;;;;;;;;;;5070458;28;20095;-64
2023/08/01 11:43:25;;;;;;;9.93;2.70;;;;;;;;;;5069920;28;20048;-64
2023/08/01 11:45:54;;;;;;;8.90;2.57;;;;;;;;;;5070483;28;20036;-64
2023/08/01 11:48:21;;;;;;;8.57;2.47;;;;;;;;;;5070227;28;20103;-64
2023/08/01 11:50:47;;;;;;;7.57;1.87;;;;;;;;;;5070594;28;20091;-64
2023/08/01 11:53:20;;;;;;;21.50;3.53;;;;;;;;;;5069745;28;20161;-64
2023/08/01 11:55:46;;;;;;;;;;;;;;;;;;5070472;28;20576;-65
2023/08/01 11:58:13;;;;;;;42.70;5.20;;;;;;;;;;5070149;28;19925;-66
2023/08/01 12:00:40;;;;;;;21.70;3.87;;;;;;;;;;5070175;28;20059;-65
2023/08/01 12:03:13;;;;;;;17.67;4.40;;;;;;;;;;5068335;28;20422;-65
2023/08/01 12:05:45;;;;;;;14.60;4.87;;;;;;;;;;5069942;28;20455;-64
2023/08/01 12:08:15;;;;;;;14.33;3.87;;;;;;;;;;5069932;28;20051;-64
2023/08/01 12:10:41;;;;;;;15.07;4.53;;;;;;;;;;5069992;28;20127;-64
2023/08/01 12:13:19;;;;;;;17.03;4.80;;;;;;;;;;5069853;28;20102;-64
2023/08/01 12:15:46;;;;;;;12.23;6.07;;;;;;;;;;5068568;28;20484;-64
2023/08/01 12:18:19;;;;;;;12.07;4.30;;;;;;;;;;5070162;28;20058;-64
2023/08/01 12:20:45;;;;;;;10.18;2.88;;;;;;;;;;5069854;28;20098;-64
2023/08/01 12:23:11;;;;;;;8.50;2.50;;;;;;;;;;5069741;28;20401;-64
2023/08/01 12:25:37;;;;;;;6.63;2.60;;;;;;;;;;5069451;28;20060;-64
2023/08/01 12:28:03;;;;;;;9.87;3.33;;;;;;;;;;5068968;28;20087;-64
2023/08/01 12:30:29;;;;;;;15.33;3.40;;;;;;;;;;5069430;28;20481;-64
2023/08/01 12:32:55;;;;;;;13.20;4.67;;;;;;;;;;5069286;28;20072;-64
2023/08/01 12:35:21;;;;;;;9.27;2.77;;;;;;;;;;5068955;28;20425;-64
2023/08/01 12:37:47;;;;;;;11.03;3.43;;;;;;;;;;5069348;28;20151;-64
2023/08/01 12:40:13;;;;;;;11.10;2.77;;;;;;;;;;5067952;28;20048;-64
2023/08/01 12:42:39;;;;;;;10.57;2.90;;;;;;;;;;5069035;28;20060;-64
2023/08/01 12:45:05;;;;;;;10.27;2.20;;;;;;;;;;5069078;28;20048;-64
2023/08/01 12:47:31;;;;;;;9.17;2.07;;;;;;;;;;5069513;28;20098;-64
2023/08/01 12:49:57;;;;;;;5.67;1.77;;;;;;;;;;5068652;28;20481;-64
2023/08/01 12:52:24;;;;;;;6.47;1.93;;;;;;;;;;5067818;28;20048;-65
2023/08/01 12:54:50;;;;;;;8.10;1.93;;;;;;;;;;5069103;28;20052;-64
2023/08/01 12:57:16;;;;;;;7.13;1.63;;;;;;;;;;5069001;28;20037;-64
2023/08/01 12:59:42;;;;;;;6.77;2.03;;;;;;;;;;5068905;28;20044;-64
2023/08/01 13:02:08;;;;;;;7.67;2.00;;;;;;;;;;5068811;28;20041;-64
2023/08/01 13:04:35;;;;;;;7.03;1.80;;;;;;;;;;5068600;28;20055;-64
2023/08/01 13:07:01;;;;;;;7.17;1.93;;;;;;;;;;5069229;28;20052;-65
2023/08/01 13:09:27;;;;;;;6.00;1.57;;;;;;;;;;5068886;28;20052;-65
2023/08/01 13:11:53;;;;;;;7.70;1.97;;;;;;;;;;5068825;28;20048;-64
2023/08/01 13:14:19;;;;;;;6.03;1.50;;;;;;;;;;5068384;28;20098;-65
2023/08/01 13:16:45;;;;;;;9.43;2.07;;;;;;;;;;5068118;28;20041;-65
2023/08/01 13:19:11;;;;;;;7.63;1.70;;;;;;;;;;5068444;28;20051;-64
2023/08/01 13:21:37;;;;;;;7.00;2.03;;;;;;;;;;5068476;28;20048;-64
2023/08/01 13:24:06;;;;;;;5.90;2.07;;;;;;;;;;5068351;28;20036;-64
2023/08/01 13:26:32;;;;;;;10.43;3.10;;;;;;;;;;5067739;28;20040;-64
2023/08/01 13:28:58;;;;;;;9.47;1.90;;;;;;;;;;5068296;28;20467;-64
2023/08/01 13:31:25;;;;;;;9.10;2.17;;;;;;;;;;5068220;28;20494;-64
2023/08/01 13:33:51;;;;;;;7.20;1.80;;;;;;;;;;5067770;28;20156;-64
2023/08/01 13:36:20;;;;;;;9.97;2.13;;;;;;;;;;5068554;28;20052;-64
2023/08/01 13:38:46;;;;;;;7.67;2.13;;;;;;;;;;5068244;28;20045;-64
2023/08/01 13:41:12;;;;;;;6.57;1.97;;;;;;;;;;5068099;28;20079;-64
2023/08/01 13:43:38;;;;;;;7.33;1.80;;;;;;;;;;5067887;28;20113;-64
2023/08/01 13:46:14;;;;;;;6.70;2.07;;;;;;;;;;5068345;28;20049;-65
2023/08/01 13:48:40;;;;;;;13.73;2.70;;;;;;;;;;5067576;28;20418;-64
2023/08/01 13:51:06;;;;;;;7.73;2.20;;;;;;;;;;5068260;28;20083;-65
2023/08/01 13:53:33;;;;;;;8.63;2.37;;;;;;;;;;5068035;28;20837;-65
2023/08/01 13:55:59;;;;;;;8.60;2.23;;;;;;;;;;5067866;28;20131;-64
2023/08/01 13:58:25;;;;;;;6.00;2.10;;;;;;;;;;5068003;28;20044;-64
2023/08/01 14:00:51;;;;;;;9.90;2.40;;;;;;;;;;5067734;28;20049;-63
2023/08/01 14:03:17;;;;;;;9.93;2.77;;;;;;;;;;5067839;28;20561;-63
2023/08/01 14:05:43;;;;;;;5.83;2.03;;;;;;;;;;5068070;28;20090;-64
2023/08/01 14:08:09;;;;;;;4.23;1.50;;;;;;;;;;5067349;28;20478;-63
2023/08/01 14:10:35;;;;;;;6.13;1.80;;;;;;;;;;5067901;28;20044;-64
2023/08/01 14:13:01;;;;;;;4.87;1.73;;;;;;;;;;5068068;28;20052;-63
2023/08/01 14:15:27;;;;;;;9.07;1.80;;;;;;;;;;5067799;28;20055;-63
2023/08/01 14:17:53;;;;;;;4.13;1.50;;;;;;;;;;5067737;28;20041;-63
2023/08/01 14:20:19;;;;;;;5.57;1.57;;;;;;;;;;5067292;28;20474;-64
2023/08/01 14:22:46;;;;;;;5.87;1.27;;;;;;;;;;5068159;28;20040;-64
2023/08/01 14:25:12;;;;;;;3.43;1.20;;;;;;;;;;5067451;28;20047;-64
2023/08/01 14:27:38;;;;;;;6.10;1.50;;;;;;;;;;5067949;28;20046;-64
2023/08/01 14:30:05;;;;;;;4.73;1.50;;;;;;;;;;5067236;28;20139;-64